createdAt,value
2022-07-26T00:01:01.353Z,21.29
2022-07-26T00:03:30.662Z,21.61
2022-07-26T00:05:58.586Z,21.47
2022-07-26T00:08:26.736Z,21.48
2022-07-26T00:10:54.678Z,21.47
2022-07-26T00:13:23.283Z,21.17
2022-07-26T00:15:52.252Z,21.63
2022-07-26T00:18:20.802Z,21.75
2022-07-26T00:20:50.537Z,21.79
2022-07-26T00:23:19.480Z,21.82
2022-07-26T00:25:47.994Z,21.75
2022-07-26T00:28:15.891Z,21.66
2022-07-26T00:30:43.911Z,21.66
2022-07-26T00:33:11.776Z,21.68
2022-07-26T00:35:39.829Z,21.77
2022-07-26T00:38:09.204Z,21.85
2022-07-26T00:40:37.355Z,21.90
2022-07-26T00:43:05.280Z,21.93
2022-07-26T00:45:33.287Z,21.88
2022-07-26T00:48:01.180Z,21.94
2022-07-26T00:50:29.017Z,21.96
2022-07-26T00:52:57.194Z,21.98
2022-07-26T00:55:26.463Z,22.03
2022-07-26T00:57:54.443Z,22.00
2022-07-26T01:00:26.518Z,21.92
2022-07-26T01:02:55.279Z,21.95
2022-07-26T01:05:24.265Z,22.02
2022-07-26T01:07:53.079Z,22.15
2022-07-26T01:10:21.172Z,22.29
2022-07-26T01:12:50.509Z,21.98
2022-07-26T01:15:18.537Z,22.18
2022-07-26T01:17:47.480Z,22.25
2022-07-26T01:20:15.724Z,22.21
2022-07-26T01:22:45.094Z,22.15
2022-07-26T01:25:12.981Z,22.25
2022-07-26T01:27:41.127Z,22.16
2022-07-26T01:30:12.489Z,21.91
2022-07-26T01:32:40.498Z,21.58
2022-07-26T01:35:09.695Z,21.80
2022-07-26T01:37:37.698Z,21.67
2022-07-26T01:40:08.482Z,21.67
2022-07-26T01:42:40.756Z,21.60
2022-07-26T01:45:09.971Z,21.51
2022-07-26T01:47:38.227Z,21.43
2022-07-26T01:50:07.886Z,21.35
2022-07-26T01:52:35.927Z,21.33
2022-07-26T01:55:04.025Z,21.27
2022-07-26T01:57:33.298Z,21.19
2022-07-26T02:00:01.270Z,21.16
2022-07-26T02:02:29.742Z,20.93
2022-07-26T02:05:00.378Z,21.26
2022-07-26T02:07:29.493Z,21.02
2022-07-26T02:09:57.984Z,21.42
2022-07-26T02:12:26.477Z,21.33
2022-07-26T02:14:55.833Z,21.28
2022-07-26T02:17:23.801Z,21.30
2022-07-26T02:19:52.395Z,21.11
2022-07-26T02:22:21.069Z,21.01
2022-07-26T02:24:49.356Z,21.14
2022-07-26T02:27:18.545Z,21.28
2022-07-26T02:29:46.505Z,21.17
2022-07-26T02:32:15.844Z,21.04
2022-07-26T02:34:43.793Z,20.76
2022-07-26T02:37:11.656Z,20.95
2022-07-26T02:39:39.553Z,20.80
2022-07-26T02:42:07.549Z,20.82
2022-07-26T02:44:36.665Z,20.98
2022-07-26T02:47:04.607Z,21.00
2022-07-26T02:49:33.865Z,20.70
2022-07-26T02:52:01.741Z,20.67
2022-07-26T02:54:29.624Z,20.72
2022-07-26T02:56:57.478Z,20.70
2022-07-26T02:59:25.380Z,20.74
2022-07-26T03:01:53.307Z,20.84
2022-07-26T03:04:21.286Z,20.60
2022-07-26T03:06:50.582Z,20.79
2022-07-26T03:09:18.565Z,20.72
2022-07-26T03:11:46.462Z,20.60
2022-07-26T03:14:14.452Z,20.55
2022-07-26T03:16:42.363Z,20.60
2022-07-26T03:19:10.287Z,20.61
2022-07-26T03:21:38.184Z,20.30
2022-07-26T03:24:08.446Z,20.59
2022-07-26T03:26:36.613Z,20.48
2022-07-26T03:29:04.644Z,20.53
2022-07-26T03:31:32.582Z,20.41
2022-07-26T03:34:03.246Z,19.73
2022-07-26T03:36:31.465Z,20.42
2022-07-26T03:38:59.394Z,20.35
2022-07-26T03:41:31.616Z,20.40
2022-07-26T03:43:59.521Z,20.34
2022-07-26T03:46:27.567Z,20.34
2022-07-26T03:48:55.701Z,20.36
2022-07-26T03:51:23.747Z,20.38
2022-07-26T03:53:51.931Z,20.36
2022-07-26T03:56:32.067Z,20.47
2022-07-26T03:59:03.930Z,20.55
2022-07-26T04:01:32.315Z,20.50
2022-07-26T04:04:00.381Z,20.52
2022-07-26T04:06:29.545Z,20.60
2022-07-26T04:08:57.905Z,20.47
2022-07-26T04:11:28.260Z,20.66
2022-07-26T04:13:56.950Z,20.64
2022-07-26T04:16:26.403Z,20.36
2022-07-26T04:18:54.521Z,20.74
2022-07-26T04:21:22.974Z,20.86
2022-07-26T04:23:51.735Z,20.94
2022-07-26T04:26:20.215Z,21.06
2022-07-26T04:28:48.518Z,21.16
2022-07-26T04:31:16.718Z,21.19
2022-07-26T04:33:46.003Z,21.36
2022-07-26T04:36:13.993Z,21.43
2022-07-26T04:38:42.187Z,21.41
2022-07-26T04:41:10.205Z,21.65
2022-07-26T04:43:38.125Z,21.79
2022-07-26T04:46:06.133Z,21.85
2022-07-26T04:48:34.114Z,21.71
2022-07-26T04:51:03.575Z,22.02
2022-07-26T04:53:31.659Z,22.07
2022-07-26T04:56:14.678Z,22.19
2022-07-26T04:58:42.565Z,22.20
2022-07-26T05:01:11.207Z,22.85
2022-07-26T05:03:39.414Z,23.53
2022-07-26T05:06:08.985Z,23.83
2022-07-26T05:08:36.903Z,23.91
2022-07-26T05:11:05.163Z,24.25
2022-07-26T05:13:33.053Z,24.42
2022-07-26T05:16:01.935Z,24.72
2022-07-26T05:18:48.810Z,24.77
2022-07-26T05:21:19.718Z,25.01
2022-07-26T05:23:47.649Z,25.31
2022-07-26T05:26:15.839Z,25.42
2022-07-26T05:28:43.757Z,25.82
2022-07-26T05:31:11.718Z,26.62
2022-07-26T05:33:39.644Z,27.34
2022-07-26T05:36:07.888Z,27.22
2022-07-26T05:38:37.220Z,27.34
2022-07-26T05:41:05.520Z,27.93
2022-07-26T05:43:41.606Z,28.05
2022-07-26T05:46:10.846Z,28.16
2022-07-26T05:48:39.031Z,27.97
2022-07-26T05:51:07.153Z,27.23
2022-07-26T05:53:35.092Z,26.81
2022-07-26T05:56:04.811Z,27.41
2022-07-26T05:58:32.796Z,27.78
2022-07-26T06:01:00.705Z,28.29
2022-07-26T06:03:30.156Z,28.40
2022-07-26T06:05:59.743Z,29.38
2022-07-26T06:08:27.772Z,29.61
2022-07-26T06:10:56.247Z,29.81
2022-07-26T06:13:25.600Z,29.88
2022-07-26T06:15:53.717Z,29.08
2022-07-26T06:18:21.612Z,29.28
2022-07-26T06:20:50.411Z,29.73
2022-07-26T06:23:18.273Z,30.15
2022-07-26T06:26:02.265Z,29.84
2022-07-26T06:28:31.542Z,29.79
2022-07-26T06:30:59.570Z,29.83
2022-07-26T06:33:27.552Z,30.02
2022-07-26T06:35:55.409Z,30.25
2022-07-26T06:38:23.651Z,30.12
2022-07-26T06:40:51.565Z,30.44
2022-07-26T06:43:19.545Z,30.81
2022-07-26T06:45:49.428Z,31.11
2022-07-26T06:48:17.440Z,31.43
2022-07-26T06:50:45.537Z,31.55
2022-07-26T06:53:13.529Z,31.25
2022-07-26T06:55:42.680Z,31.10
2022-07-26T06:58:10.953Z,31.30
2022-07-26T07:00:38.898Z,31.48
2022-07-26T07:03:08.282Z,31.68
2022-07-26T07:05:36.205Z,31.79
2022-07-26T07:08:04.725Z,31.98
2022-07-26T07:10:35.326Z,31.23
2022-07-26T07:13:04.004Z,31.35
2022-07-26T07:15:31.934Z,31.55
2022-07-26T07:17:59.797Z,32.09
2022-07-26T07:20:29.496Z,31.53
2022-07-26T07:22:57.425Z,32.49
2022-07-26T07:25:30.835Z,32.82
2022-07-26T07:27:59.353Z,32.95
2022-07-26T07:30:27.927Z,32.57
2022-07-26T07:32:56.825Z,32.95
2022-07-26T07:35:25.093Z,32.28
2022-07-26T07:38:02.026Z,32.48
2022-07-26T07:40:30.320Z,33.17
2022-07-26T07:42:58.875Z,33.47
2022-07-26T07:45:26.912Z,33.71
2022-07-26T07:47:54.976Z,33.50
2022-07-26T07:50:22.897Z,33.11
2022-07-26T07:52:55.328Z,33.14
2022-07-26T07:55:43.987Z,32.63
2022-07-26T07:58:14.557Z,33.44
2022-07-26T08:00:42.748Z,34.35
2022-07-26T08:03:10.642Z,34.72
2022-07-26T08:05:40.415Z,34.11
2022-07-26T08:08:08.812Z,33.33
2022-07-26T08:10:41.829Z,33.75
2022-07-26T08:13:16.983Z,34.31
2022-07-26T08:15:49.273Z,34.38
2022-07-26T08:18:17.342Z,34.79
2022-07-26T08:20:47.677Z,35.31
2022-07-26T08:23:16.524Z,35.89
2022-07-26T08:25:55.609Z,36.32
2022-07-26T08:28:45.606Z,35.18
2022-07-26T08:31:11.971Z,35.59
2022-07-26T08:33:40.827Z,35.10
2022-07-26T08:36:13.663Z,34.75
2022-07-26T08:38:41.915Z,34.47
2022-07-26T08:41:11.172Z,34.44
2022-07-26T08:43:50.974Z,34.98
2022-07-26T08:46:25.299Z,35.26
2022-07-26T08:48:54.304Z,35.47
2022-07-26T08:51:24.655Z,35.66
2022-07-26T08:54:04.102Z,35.74
2022-07-26T08:56:35.876Z,35.87
2022-07-26T08:59:18.810Z,34.99
2022-07-26T09:01:58.829Z,35.17
2022-07-26T09:04:32.314Z,35.61
2022-07-26T09:07:07.188Z,36.21
2022-07-26T09:09:37.701Z,36.18
2022-07-26T09:12:18.255Z,36.58
2022-07-26T09:14:47.700Z,36.32
2022-07-26T09:17:17.225Z,36.64
2022-07-26T09:19:45.289Z,36.44
2022-07-26T09:22:15.971Z,36.75
2022-07-26T09:24:46.223Z,37.14
2022-07-26T09:27:18.213Z,37.40
2022-07-26T09:29:48.433Z,37.08
2022-07-26T09:32:19.357Z,36.56
2022-07-26T09:34:52.964Z,36.50
2022-07-26T09:37:34.273Z,36.92
2022-07-26T09:40:03.948Z,37.01
2022-07-26T09:42:33.241Z,36.80
2022-07-26T09:45:01.378Z,35.95
2022-07-26T09:47:39.768Z,36.27
2022-07-26T09:50:12.612Z,37.41
2022-07-26T09:52:40.943Z,38.01
2022-07-26T09:55:10.445Z,37.51
2022-07-26T09:57:39.861Z,36.57
2022-07-26T10:00:09.171Z,36.42
2022-07-26T10:02:37.112Z,35.90
2022-07-26T10:05:05.325Z,35.55
2022-07-26T10:07:33.481Z,35.91
2022-07-26T10:10:05.489Z,35.37
2022-07-26T10:12:34.557Z,35.95
2022-07-26T10:15:04.014Z,36.40
2022-07-26T10:17:42.738Z,37.12
2022-07-26T10:20:17.259Z,37.16
2022-07-26T10:22:49.030Z,37.52
2022-07-26T10:25:48.676Z,37.83
2022-07-26T10:28:28.638Z,38.56
2022-07-26T10:31:29.412Z,38.75
2022-07-26T10:33:59.376Z,37.40
2022-07-26T10:36:32.495Z,37.78
2022-07-26T10:39:12.507Z,37.90
2022-07-26T10:41:43.926Z,37.98
2022-07-26T10:44:17.278Z,38.04
2022-07-26T10:47:20.575Z,37.41
2022-07-26T10:49:58.547Z,37.06
2022-07-26T10:52:28.428Z,36.82
2022-07-26T10:55:18.119Z,36.72
2022-07-26T10:57:48.999Z,37.63
2022-07-26T11:00:23.423Z,38.61
2022-07-26T11:02:57.690Z,39.07
2022-07-26T11:05:31.161Z,38.03
2022-07-26T11:08:08.218Z,37.12
2022-07-26T11:10:38.076Z,36.57
2022-07-26T11:13:12.032Z,36.60
2022-07-26T11:15:42.718Z,37.51
2022-07-26T11:18:24.983Z,37.35
2022-07-26T11:20:56.610Z,37.34
2022-07-26T11:23:33.576Z,37.45
2022-07-26T11:26:09.879Z,37.15
2022-07-26T11:28:52.895Z,37.95
2022-07-26T11:31:23.671Z,38.24
2022-07-26T11:34:18.305Z,38.67
2022-07-26T11:36:48.324Z,38.79
2022-07-26T11:39:21.761Z,38.15
2022-07-26T11:41:52.264Z,38.40
2022-07-26T11:44:21.825Z,38.51
2022-07-26T11:46:50.729Z,38.27
2022-07-26T11:49:22.848Z,37.89
2022-07-26T11:51:53.973Z,38.35
2022-07-26T11:54:22.618Z,37.91
2022-07-26T11:56:59.182Z,38.66
2022-07-26T11:59:29.049Z,39.18
2022-07-26T12:01:58.043Z,38.75
2022-07-26T12:04:27.629Z,38.69
2022-07-26T12:06:59.287Z,37.97
2022-07-26T12:09:32.357Z,37.86
2022-07-26T12:12:00.774Z,37.14
2022-07-26T12:14:29.558Z,36.51
2022-07-26T12:16:58.006Z,35.43
2022-07-26T12:19:29.788Z,35.86
2022-07-26T12:22:08.488Z,36.04
2022-07-26T12:24:49.825Z,36.51
2022-07-26T12:27:19.797Z,36.35
2022-07-26T12:29:50.344Z,35.40
2022-07-26T12:32:19.578Z,35.09
2022-07-26T12:35:00.160Z,35.66
2022-07-26T12:37:39.771Z,35.83
2022-07-26T12:40:11.505Z,35.45
2022-07-26T12:42:41.612Z,34.71
2022-07-26T12:45:12.278Z,34.80
2022-07-26T12:47:41.959Z,34.64
2022-07-26T12:50:11.962Z,34.76
2022-07-26T12:52:41.867Z,35.40
2022-07-26T12:55:14.538Z,34.89
2022-07-26T12:57:45.978Z,34.77
2022-07-26T13:00:18.491Z,35.02
2022-07-26T13:02:47.027Z,34.88
2022-07-26T13:05:15.415Z,34.90
2022-07-26T13:07:44.772Z,34.69
2022-07-26T13:10:32.398Z,35.17
2022-07-26T13:13:01.250Z,35.20
2022-07-26T13:15:36.584Z,35.37
2022-07-26T13:18:06.584Z,35.38
2022-07-26T13:20:34.544Z,35.16
2022-07-26T13:23:04.363Z,34.98
2022-07-26T13:25:38.343Z,34.39
2022-07-26T13:28:08.983Z,34.68
2022-07-26T13:30:39.320Z,35.11
2022-07-26T13:33:08.179Z,36.09
2022-07-26T13:35:38.925Z,36.29
2022-07-26T13:38:08.158Z,36.52
2022-07-26T13:40:36.280Z,37.11
2022-07-26T13:43:05.430Z,37.44
2022-07-26T13:45:33.337Z,37.59
2022-07-26T13:48:01.324Z,37.16
2022-07-26T13:50:29.295Z,36.84
2022-07-26T13:52:57.746Z,35.69
2022-07-26T13:55:27.037Z,34.40
2022-07-26T13:57:56.799Z,33.90
2022-07-26T14:00:25.970Z,33.67
2022-07-26T14:02:53.990Z,33.81
2022-07-26T14:05:22.001Z,33.86
2022-07-26T14:07:50.302Z,33.79
2022-07-26T14:10:18.304Z,33.76
2022-07-26T14:12:47.891Z,33.50
2022-07-26T14:15:21.618Z,32.98
2022-07-26T14:17:50.893Z,33.19
2022-07-26T14:20:18.884Z,32.67
2022-07-26T14:22:47.823Z,33.34
2022-07-26T14:25:15.789Z,33.42
2022-07-26T14:27:44.202Z,33.47
2022-07-26T14:30:14.776Z,33.41
2022-07-26T14:32:42.683Z,33.55
2022-07-26T14:35:11.325Z,33.44
2022-07-26T14:37:43.251Z,33.88
2022-07-26T14:40:14.040Z,33.73
2022-07-26T14:42:42.097Z,33.45
2022-07-26T14:45:10.926Z,33.52
2022-07-26T14:47:40.578Z,33.63
2022-07-26T14:50:10.188Z,33.59
2022-07-26T14:52:39.130Z,33.27
2022-07-26T14:55:07.978Z,33.29
2022-07-26T14:57:38.217Z,33.41
2022-07-26T15:00:09.345Z,33.42
2022-07-26T15:02:41.312Z,33.54
2022-07-26T15:05:10.474Z,33.26
2022-07-26T15:07:38.662Z,33.48
2022-07-26T15:10:08.265Z,33.54
2022-07-26T15:12:36.336Z,33.45
2022-07-26T15:15:05.047Z,33.58
2022-07-26T15:17:33.186Z,33.51
2022-07-26T15:20:02.954Z,32.96
2022-07-26T15:22:30.896Z,33.42
2022-07-26T15:24:58.756Z,33.60
2022-07-26T15:27:26.655Z,33.68
2022-07-26T15:29:58.276Z,33.60
2022-07-26T15:32:30.688Z,33.48
2022-07-26T15:34:58.827Z,33.57
2022-07-26T15:37:28.907Z,33.45
2022-07-26T15:39:56.866Z,33.07
2022-07-26T15:42:24.795Z,33.40
2022-07-26T15:44:53.042Z,33.53
2022-07-26T15:47:52.210Z,33.55
2022-07-26T15:50:11.756Z,33.46
2022-07-26T15:52:44.491Z,33.31
2022-07-26T15:55:14.180Z,33.03
2022-07-26T15:57:42.511Z,33.51
2022-07-26T16:00:12.555Z,33.61
2022-07-26T16:02:41.366Z,33.68
2022-07-26T16:05:10.581Z,33.65
2022-07-26T16:07:41.648Z,33.65
2022-07-26T16:10:10.691Z,33.61
2022-07-26T16:12:38.788Z,33.63
2022-07-26T16:15:08.504Z,33.10
2022-07-26T16:17:36.524Z,33.39
2022-07-26T16:20:05.623Z,33.47
2022-07-26T16:22:33.559Z,33.38
2022-07-26T16:25:02.917Z,33.55
2022-07-26T16:27:30.834Z,33.55
2022-07-26T16:29:58.758Z,33.50
2022-07-26T16:32:26.704Z,33.43
2022-07-26T16:34:54.577Z,33.42
2022-07-26T16:37:22.634Z,33.45
2022-07-26T16:39:50.623Z,33.29
2022-07-26T16:42:19.961Z,33.58
2022-07-26T16:44:47.845Z,33.55
2022-07-26T16:47:15.864Z,33.51
2022-07-26T16:49:43.857Z,33.45
2022-07-26T16:52:11.772Z,33.39
2022-07-26T16:54:39.697Z,32.94
2022-07-26T16:57:07.587Z,33.15
2022-07-26T16:59:36.886Z,33.12
2022-07-26T17:02:05.373Z,33.11
2022-07-26T17:04:33.293Z,32.94
2022-07-26T17:07:23.857Z,32.98
2022-07-26T17:09:49.413Z,32.99
2022-07-26T17:12:17.521Z,32.98
2022-07-26T17:14:46.831Z,32.99
2022-07-26T17:17:14.740Z,32.94
2022-07-26T17:19:42.671Z,32.85
2022-07-26T17:22:10.574Z,32.70
2022-07-26T17:24:38.468Z,32.74
2022-07-26T17:27:06.596Z,32.62
2022-07-26T17:29:34.622Z,32.55
2022-07-26T17:32:03.964Z,32.46
2022-07-26T17:34:32.257Z,32.43
2022-07-26T17:37:01.214Z,32.41
2022-07-26T17:39:52.718Z,32.37
2022-07-26T17:42:19.422Z,31.98
2022-07-26T17:44:47.281Z,32.17
2022-07-26T17:47:17.995Z,32.10
2022-07-26T17:50:09.031Z,32.07
2022-07-26T17:52:42.353Z,32.02
2022-07-26T17:55:10.894Z,31.94
2022-07-26T17:57:38.873Z,31.67
2022-07-26T18:00:08.072Z,31.32
2022-07-26T18:02:37.360Z,31.19
2022-07-26T18:05:05.775Z,31.11
2022-07-26T18:07:33.822Z,30.96
2022-07-26T18:10:01.729Z,30.88
2022-07-26T18:12:30.515Z,30.86
2022-07-26T18:14:58.457Z,30.77
2022-07-26T18:17:26.437Z,30.70
2022-07-26T18:19:55.692Z,30.58
2022-07-26T18:22:24.143Z,30.52
2022-07-26T18:24:52.058Z,30.46
2022-07-26T18:27:19.956Z,30.37
2022-07-26T18:29:47.844Z,30.25
2022-07-26T18:32:16.270Z,30.16
2022-07-26T18:34:51.818Z,30.08
2022-07-26T18:37:22.445Z,30.03
2022-07-26T18:39:57.011Z,29.96
2022-07-26T18:42:25.666Z,29.89
2022-07-26T18:44:53.673Z,29.79
2022-07-26T18:47:21.823Z,29.69
2022-07-26T18:49:50.233Z,29.61
2022-07-26T18:52:32.283Z,29.50
2022-07-26T18:55:06.727Z,29.49
2022-07-26T18:57:35.572Z,29.44
2022-07-26T19:00:03.711Z,29.04
2022-07-26T19:02:31.971Z,29.32
2022-07-26T19:04:59.918Z,29.30
2022-07-26T19:07:27.879Z,29.09
2022-07-26T19:09:58.581Z,29.06
2022-07-26T19:12:28.819Z,28.96
2022-07-26T19:14:59.842Z,28.92
2022-07-26T19:17:27.936Z,28.83
2022-07-26T19:19:58.409Z,28.72
2022-07-26T19:22:29.230Z,28.51
2022-07-26T19:24:57.208Z,28.57
2022-07-26T19:27:25.960Z,28.44
2022-07-26T19:29:56.849Z,27.84
2022-07-26T19:32:26.314Z,28.42
2022-07-26T19:34:56.660Z,28.05
2022-07-26T19:37:24.657Z,28.31
2022-07-26T19:39:53.786Z,28.41
2022-07-26T19:42:21.724Z,28.40
2022-07-26T19:44:50.673Z,28.10
2022-07-26T19:47:20.000Z,28.31
2022-07-26T19:49:49.299Z,28.25
2022-07-26T19:52:17.224Z,28.15
2022-07-26T19:54:45.154Z,28.16
2022-07-26T19:57:13.083Z,27.93
2022-07-26T19:59:41.078Z,28.07
2022-07-26T20:02:09.290Z,27.95
2022-07-26T20:04:40.770Z,27.99
2022-07-26T20:07:12.037Z,27.94
2022-07-26T20:09:40.001Z,27.90
2022-07-26T20:12:07.969Z,27.76
2022-07-26T20:14:35.922Z,27.75
2022-07-26T20:17:03.869Z,27.74
2022-07-26T20:19:41.512Z,27.71
2022-07-26T20:22:09.420Z,27.50
2022-07-26T20:24:38.343Z,27.46
2022-07-26T20:27:06.754Z,27.47
2022-07-26T20:29:34.952Z,27.50
2022-07-26T20:32:02.916Z,27.43
2022-07-26T20:34:31.001Z,27.24
2022-07-26T20:37:00.263Z,27.23
2022-07-26T20:39:28.159Z,26.98
2022-07-26T20:41:57.154Z,27.02
2022-07-26T20:44:28.496Z,26.90
2022-07-26T20:46:56.620Z,26.92
2022-07-26T20:49:24.691Z,26.81
2022-07-26T20:51:52.661Z,26.80
2022-07-26T20:54:21.959Z,26.75
2022-07-26T20:56:49.950Z,26.51
2022-07-26T20:59:17.886Z,26.19
2022-07-26T21:01:45.836Z,26.34
2022-07-26T21:04:13.749Z,25.96
2022-07-26T21:06:41.639Z,25.99
2022-07-26T21:09:10.549Z,25.99
2022-07-26T21:11:40.517Z,25.79
2022-07-26T21:14:08.424Z,25.72
2022-07-26T21:16:36.541Z,25.62
2022-07-26T21:19:05.766Z,25.50
2022-07-26T21:21:34.748Z,25.36
2022-07-26T21:24:02.716Z,24.68
2022-07-26T21:26:30.648Z,25.19
2022-07-26T21:28:59.999Z,25.20
2022-07-26T21:31:27.920Z,25.12
2022-07-26T21:33:55.853Z,25.02
2022-07-26T21:36:24.271Z,24.98
2022-07-26T21:38:52.163Z,25.08
2022-07-26T21:41:21.077Z,24.43
2022-07-26T21:43:49.330Z,25.00
2022-07-26T21:46:18.574Z,24.94
2022-07-26T21:48:46.581Z,25.02
2022-07-26T21:51:14.533Z,25.16
2022-07-26T21:53:42.446Z,25.23
2022-07-26T21:56:11.285Z,25.26
2022-07-26T21:58:39.629Z,25.20
2022-07-26T22:01:08.173Z,25.23
2022-07-26T22:03:38.397Z,25.23
2022-07-26T22:06:07.138Z,25.17
2022-07-26T22:08:35.326Z,25.13
2022-07-26T22:11:04.645Z,24.67
2022-07-26T22:13:32.897Z,25.17
2022-07-26T22:16:00.933Z,25.17
2022-07-26T22:18:29.363Z,25.16
2022-07-26T22:20:58.985Z,25.18
2022-07-26T22:23:30.205Z,25.13
2022-07-26T22:25:59.123Z,25.20
2022-07-26T22:28:27.304Z,25.20
2022-07-26T22:30:55.713Z,25.28
2022-07-26T22:33:24.468Z,25.17
2022-07-26T22:35:52.795Z,25.34
2022-07-26T22:38:22.223Z,25.34
2022-07-26T22:40:50.143Z,25.32
2022-07-26T22:43:18.328Z,25.24
2022-07-26T22:45:46.338Z,25.12
2022-07-26T22:48:14.307Z,25.11
2022-07-26T22:50:42.322Z,25.17
2022-07-26T22:53:10.178Z,25.08
2022-07-26T22:55:39.456Z,24.95
2022-07-26T22:58:07.367Z,24.80
2022-07-26T23:00:35.362Z,24.80
2022-07-26T23:03:03.316Z,24.41
2022-07-26T23:05:46.609Z,24.61
2022-07-26T23:11:05.361Z,24.43
2022-07-26T23:13:33.320Z,24.36
2022-07-26T23:16:01.974Z,24.27
2022-07-26T23:18:30.712Z,24.03
2022-07-26T23:20:58.919Z,23.96
2022-07-26T23:23:29.273Z,23.94
2022-07-26T23:25:58.813Z,23.91
2022-07-26T23:28:37.152Z,23.83
2022-07-26T23:31:10.794Z,23.81
2022-07-26T23:33:52.129Z,23.74
2022-07-26T23:36:25.841Z,23.86
2022-07-26T23:38:54.490Z,23.39
2022-07-26T23:41:22.957Z,23.60
2022-07-26T23:43:52.725Z,23.51
2022-07-26T23:46:20.787Z,23.45
2022-07-26T23:48:49.100Z,23.38
2022-07-26T23:51:17.536Z,23.07
2022-07-26T23:53:45.500Z,23.28
2022-07-26T23:56:13.736Z,23.14
2022-07-26T23:58:41.747Z,23.24
